sensor_id;sensor_type;location;lat;lon;timestamp;pressure;altitude;pressure_sealevel;temperature;humidity
67015;BME280;1033;52.560;13.374;2023-07-13T00:02:01;100693.06;;;19.35;64.93
67015;BME280;1033;52.560;13.374;2023-07-13T00:04:44;100694.94;;;19.29;65.92
67015;BME280;1033;52.560;13.374;2023-07-13T00:07:24;100696.75;;;19.50;64.35
67015;BME280;1033;52.560;13.374;2023-07-13T00:10:10;100695.53;;;19.31;64.65
67015;BME280;1033;52.560;13.374;2023-07-13T00:12:42;100684.63;;;19.46;65.69
67015;BME280;1033;52.560;13.374;2023-07-13T00:15:27;100684.88;;;19.40;64.23
67015;BME280;1033;52.560;13.374;2023-07-13T00:18:04;100691.09;;;19.25;65.03
67015;BME280;1033;52.560;13.374;2023-07-13T00:20:41;100689.34;;;19.14;64.66
67015;BME280;1033;52.560;13.374;2023-07-13T00:23:22;100697.03;;;19.49;65.11
67015;BME280;1033;52.560;13.374;2023-07-13T00:26:00;100696.75;;;19.50;63.89
67015;BME280;1033;52.560;13.374;2023-07-13T00:28:38;100698.22;;;19.68;63.74
67015;BME280;1033;52.560;13.374;2023-07-13T00:31:21;100704.25;;;19.28;65.09
67015;BME280;1033;52.560;13.374;2023-07-13T00:34:03;100705.13;;;19.34;65.79
67015;BME280;1033;52.560;13.374;2023-07-13T00:36:37;100706.69;;;19.62;64.18
67015;BME280;1033;52.560;13.374;2023-07-13T00:39:16;100708.09;;;19.27;64.18
67015;BME280;1033;52.560;13.374;2023-07-13T00:41:54;100701.28;;;19.77;63.96
67015;BME280;1033;52.560;13.374;2023-07-13T00:44:32;100691.75;;;19.89;63.55
67015;BME280;1033;52.560;13.374;2023-07-13T00:47:14;100699.34;;;19.77;64.12
67015;BME280;1033;52.560;13.374;2023-07-13T00:49:56;100701.09;;;19.93;63.87
67015;BME280;1033;52.560;13.374;2023-07-13T00:52:34;100703.75;;;19.78;64.18
67015;BME280;1033;52.560;13.374;2023-07-13T00:55:19;100697.13;;;19.69;64.94
67015;BME280;1033;52.560;13.374;2023-07-13T00:57:55;100694.72;;;19.36;65.11
67015;BME280;1033;52.560;13.374;2023-07-13T01:00:36;100693.94;;;19.40;65.92
67015;BME280;1033;52.560;13.374;2023-07-13T01:03:12;100692.16;;;19.24;66.75
67015;BME280;1033;52.560;13.374;2023-07-13T01:54:00;100705.84;;;18.82;69.79
67015;BME280;1033;52.560;13.374;2023-07-13T01:56:47;100695.38;;;18.79;69.08
67015;BME280;1033;52.560;13.374;2023-07-13T01:59:30;100694.69;;;18.62;70.05
67015;BME280;1033;52.560;13.374;2023-07-13T02:02:08;100699.69;;;19.02;68.77
67015;BME280;1033;52.560;13.374;2023-07-13T02:04:55;100692.22;;;18.92;68.27
67015;BME280;1033;52.560;13.374;2023-07-13T02:07:39;100704.44;;;18.80;68.90
67015;BME280;1033;52.560;13.374;2023-07-13T02:13:49;100695.63;;;19.09;68.48
67015;BME280;1033;52.560;13.374;2023-07-13T02:16:30;100702.56;;;19.22;67.80
67015;BME280;1033;52.560;13.374;2023-07-13T02:19:09;100700.19;;;18.99;68.62
67015;BME280;1033;52.560;13.374;2023-07-13T02:21:46;100703.59;;;19.11;68.51
67015;BME280;1033;52.560;13.374;2023-07-13T02:24:26;100707.22;;;19.17;67.84
67015;BME280;1033;52.560;13.374;2023-07-13T02:27:10;100705.09;;;18.92;68.17
67015;BME280;1033;52.560;13.374;2023-07-13T02:30:08;100706.28;;;18.47;70.19
67015;BME280;1033;52.560;13.374;2023-07-13T02:32:51;100697.63;;;18.07;70.88
67015;BME280;1033;52.560;13.374;2023-07-13T02:35:28;100688.34;;;18.08;72.63
67015;BME280;1033;52.560;13.374;2023-07-13T02:38:06;100684.22;;;17.84;72.28
67015;BME280;1033;52.560;13.374;2023-07-13T02:40:46;100683.38;;;18.32;71.71
67015;BME280;1033;52.560;13.374;2023-07-13T02:43:29;100675.09;;;18.00;72.36
67015;BME280;1033;52.560;13.374;2023-07-13T02:46:13;100683.19;;;17.90;72.75
67015;BME280;1033;52.560;13.374;2023-07-13T02:48:57;100703.34;;;18.27;72.46
67015;BME280;1033;52.560;13.374;2023-07-13T02:51:38;100707.53;;;17.86;72.87
67015;BME280;1033;52.560;13.374;2023-07-13T02:54:24;100701.22;;;17.86;74.82
67015;BME280;1033;52.560;13.374;2023-07-13T02:57:04;100696.59;;;18.13;73.75
67015;BME280;1033;52.560;13.374;2023-07-13T02:59:39;100713.28;;;18.60;71.63
67015;BME280;1033;52.560;13.374;2023-07-13T03:02:27;100715.16;;;18.54;71.50
67015;BME280;1033;52.560;13.374;2023-07-13T03:05:04;100724.50;;;19.22;68.66
67015;BME280;1033;52.560;13.374;2023-07-13T03:07:51;100738.09;;;19.02;68.63
67015;BME280;1033;52.560;13.374;2023-07-13T03:10:40;100730.03;;;18.90;68.92
67015;BME280;1033;52.560;13.374;2023-07-13T03:13:27;100738.59;;;18.99;68.56
67015;BME280;1033;52.560;13.374;2023-07-13T03:16:10;100731.53;;;19.08;68.41
67015;BME280;1033;52.560;13.374;2023-07-13T03:19:04;100732.69;;;19.12;68.86
67015;BME280;1033;52.560;13.374;2023-07-13T03:21:53;100746.41;;;19.17;69.19
67015;BME280;1033;52.560;13.374;2023-07-13T03:24:34;100742.84;;;19.48;67.86
67015;BME280;1033;52.560;13.374;2023-07-13T03:27:13;100746.56;;;19.37;67.54
67015;BME280;1033;52.560;13.374;2023-07-13T03:30:00;100744.69;;;19.43;67.84
67015;BME280;1033;52.560;13.374;2023-07-13T03:32:44;100746.81;;;18.99;68.00
67015;BME280;1033;52.560;13.374;2023-07-13T03:35:27;100745.59;;;18.85;69.97
67015;BME280;1033;52.560;13.374;2023-07-13T03:38:09;100746.00;;;18.98;69.25
67015;BME280;1033;52.560;13.374;2023-07-13T03:40:48;100757.19;;;18.92;68.70
67015;BME280;1033;52.560;13.374;2023-07-13T03:43:32;100756.78;;;19.10;68.79
67015;BME280;1033;52.560;13.374;2023-07-13T03:46:16;100759.97;;;18.97;69.09
67015;BME280;1033;52.560;13.374;2023-07-13T03:51:56;100758.25;;;20.02;65.44
67015;BME280;1033;52.560;13.374;2023-07-13T03:54:25;100766.16;;;20.60;63.23
67015;BME280;1033;52.560;13.374;2023-07-13T03:56:55;100756.53;;;20.63;63.03
67015;BME280;1033;52.560;13.374;2023-07-13T03:59:24;100754.34;;;20.65;62.89
67015;BME280;1033;52.560;13.374;2023-07-13T04:01:53;100756.88;;;21.62;60.17
67015;BME280;1033;52.560;13.374;2023-07-13T04:04:23;100766.72;;;22.53;56.37
67015;BME280;1033;52.560;13.374;2023-07-13T04:06:53;100768.31;;;22.64;55.71
67015;BME280;1033;52.560;13.374;2023-07-13T04:09:24;100773.84;;;23.42;53.87
67015;BME280;1033;52.560;13.374;2023-07-13T04:11:53;100771.81;;;23.81;51.82
67015;BME280;1033;52.560;13.374;2023-07-13T04:14:23;100768.75;;;23.83;51.77
67015;BME280;1033;52.560;13.374;2023-07-13T04:16:52;100768.28;;;24.00;50.72
67015;BME280;1033;52.560;13.374;2023-07-13T04:19:22;100775.59;;;23.91;50.25
67015;BME280;1033;52.560;13.374;2023-07-13T04:21:51;100782.81;;;24.34;49.96
67015;BME280;1033;52.560;13.374;2023-07-13T04:24:20;100783.56;;;24.16;49.93
67015;BME280;1033;52.560;13.374;2023-07-13T04:26:50;100769.78;;;24.58;48.60
67015;BME280;1033;52.560;13.374;2023-07-13T04:29:19;100778.13;;;24.53;49.16
67015;BME280;1033;52.560;13.374;2023-07-13T04:31:48;100772.69;;;25.04;47.59
67015;BME280;1033;52.560;13.374;2023-07-13T04:34:18;100783.28;;;25.48;47.15
67015;BME280;1033;52.560;13.374;2023-07-13T04:36:47;100787.03;;;25.58;46.28
67015;BME280;1033;52.560;13.374;2023-07-13T04:39:16;100786.16;;;25.43;46.61
67015;BME280;1033;52.560;13.374;2023-07-13T04:41:45;100795.00;;;25.45;46.90
67015;BME280;1033;52.560;13.374;2023-07-13T04:44:16;100802.84;;;25.06;47.51
67015;BME280;1033;52.560;13.374;2023-07-13T04:46:45;100799.41;;;25.79;46.13
67015;BME280;1033;52.560;13.374;2023-07-13T04:49:14;100805.25;;;25.91;46.10
67015;BME280;1033;52.560;13.374;2023-07-13T04:51:43;100805.78;;;26.20;45.44
67015;BME280;1033;52.560;13.374;2023-07-13T04:54:13;100808.28;;;26.08;44.31
67015;BME280;1033;52.560;13.374;2023-07-13T04:56:42;100809.28;;;26.67;43.70
67015;BME280;1033;52.560;13.374;2023-07-13T04:59:11;100799.53;;;26.56;43.49
67015;BME280;1033;52.560;13.374;2023-07-13T05:01:42;100802.84;;;26.30;44.44
67015;BME280;1033;52.560;13.374;2023-07-13T05:04:11;100812.69;;;26.50;43.37
67015;BME280;1033;52.560;13.374;2023-07-13T05:06:40;100808.38;;;26.03;44.22
67015;BME280;1033;52.560;13.374;2023-07-13T05:09:09;100813.19;;;25.98;44.64
67015;BME280;1033;52.560;13.374;2023-07-13T05:11:40;100799.19;;;26.71;44.24
67015;BME280;1033;52.560;13.374;2023-07-13T05:14:10;100804.78;;;26.44;43.76
67015;BME280;1033;52.560;13.374;2023-07-13T05:16:40;100816.97;;;26.70;43.58
67015;BME280;1033;52.560;13.374;2023-07-13T05:19:11;100823.72;;;27.05;43.15
67015;BME280;1033;52.560;13.374;2023-07-13T05:21:41;100813.22;;;27.46;42.29
67015;BME280;1033;52.560;13.374;2023-07-13T05:24:10;100816.94;;;26.97;43.09
67015;BME280;1033;52.560;13.374;2023-07-13T05:26:53;100812.00;;;26.94;42.55
67015;BME280;1033;52.560;13.374;2023-07-13T05:29:22;100822.72;;;27.23;42.84
67015;BME280;1033;52.560;13.374;2023-07-13T05:31:54;100824.13;;;26.98;43.20
67015;BME280;1033;52.560;13.374;2023-07-13T05:34:24;100828.13;;;27.06;42.74
67015;BME280;1033;52.560;13.374;2023-07-13T05:36:54;100817.03;;;26.92;43.11
67015;BME280;1033;52.560;13.374;2023-07-13T05:39:23;100828.44;;;26.27;43.84
67015;BME280;1033;52.560;13.374;2023-07-13T05:41:54;100832.59;;;24.34;48.49
67015;BME280;1033;52.560;13.374;2023-07-13T05:44:23;100826.69;;;22.86;52.74
67015;BME280;1033;52.560;13.374;2023-07-13T05:46:53;100821.13;;;22.32;55.34
67015;BME280;1033;52.560;13.374;2023-07-13T05:49:24;100823.16;;;22.12;56.52
67015;BME280;1033;52.560;13.374;2023-07-13T05:51:53;100825.94;;;21.81;57.51
67015;BME280;1033;52.560;13.374;2023-07-13T05:54:22;100824.28;;;21.80;57.88
67015;BME280;1033;52.560;13.374;2023-07-13T05:56:51;100836.16;;;21.50;58.31
67015;BME280;1033;52.560;13.374;2023-07-13T05:59:21;100826.53;;;21.38;59.18
67015;BME280;1033;52.560;13.374;2023-07-13T06:01:50;100820.94;;;20.92;60.02
67015;BME280;1033;52.560;13.374;2023-07-13T06:04:22;100827.09;;;21.14;59.64
67015;BME280;1033;52.560;13.374;2023-07-13T06:06:51;100824.84;;;21.87;58.09
67015;BME280;1033;52.560;13.374;2023-07-13T06:09:20;100834.19;;;22.17;56.21
67015;BME280;1033;52.560;13.374;2023-07-13T06:11:50;100822.97;;;22.57;55.81
67015;BME280;1033;52.560;13.374;2023-07-13T06:14:19;100828.03;;;22.40;55.33
67015;BME280;1033;52.560;13.374;2023-07-13T06:16:49;100826.66;;;22.32;56.07
67015;BME280;1033;52.560;13.374;2023-07-13T06:19:18;100821.63;;;22.49;55.56
67015;BME280;1033;52.560;13.374;2023-07-13T06:21:49;100816.94;;;22.50;55.24
67015;BME280;1033;52.560;13.374;2023-07-13T06:24:18;100822.50;;;22.40;55.25
67015;BME280;1033;52.560;13.374;2023-07-13T06:26:47;100818.16;;;22.24;56.10
67015;BME280;1033;52.560;13.374;2023-07-13T06:29:17;100819.00;;;22.19;56.55
67015;BME280;1033;52.560;13.374;2023-07-13T06:31:46;100821.50;;;22.16;56.43
67015;BME280;1033;52.560;13.374;2023-07-13T06:34:15;100821.53;;;21.95;57.12
67015;BME280;1033;52.560;13.374;2023-07-13T06:36:44;100820.94;;;22.08;57.52
67015;BME280;1033;52.560;13.374;2023-07-13T06:39:15;100824.28;;;22.05;57.52
67015;BME280;1033;52.560;13.374;2023-07-13T06:41:44;100814.91;;;21.91;57.33
67015;BME280;1033;52.560;13.374;2023-07-13T06:44:14;100828.13;;;22.09;57.03
67015;BME280;1033;52.560;13.374;2023-07-13T06:46:43;100824.53;;;22.14;56.87
67015;BME280;1033;52.560;13.374;2023-07-13T06:49:12;100819.28;;;22.07;56.08
67015;BME280;1033;52.560;13.374;2023-07-13T06:51:41;100816.22;;;22.24;55.66
67015;BME280;1033;52.560;13.374;2023-07-13T06:54:10;100816.94;;;22.50;55.38
67015;BME280;1033;52.560;13.374;2023-07-13T06:56:45;100817.00;;;22.40;54.66
67015;BME280;1033;52.560;13.374;2023-07-13T06:59:16;100810.28;;;22.56;54.66
67015;BME280;1033;52.560;13.374;2023-07-13T07:01:46;100823.59;;;22.98;53.90
67015;BME280;1033;52.560;13.374;2023-07-13T07:04:15;100813.88;;;23.06;53.92
67015;BME280;1033;52.560;13.374;2023-07-13T07:06:44;100818.53;;;23.10;52.63
67015;BME280;1033;52.560;13.374;2023-07-13T07:09:13;100813.44;;;22.88;53.23
67015;BME280;1033;52.560;13.374;2023-07-13T07:11:45;100817.91;;;22.84;52.36
67015;BME280;1033;52.560;13.374;2023-07-13T07:14:30;100814.34;;;22.79;51.82
67015;BME280;1033;52.560;13.374;2023-07-13T07:16:59;100824.53;;;22.78;52.54
67015;BME280;1033;52.560;13.374;2023-07-13T07:19:30;100811.50;;;23.28;52.43
67015;BME280;1033;52.560;13.374;2023-07-13T07:22:00;100818.19;;;23.22;50.60
67015;BME280;1033;52.560;13.374;2023-07-13T07:24:29;100824.59;;;23.51;50.80
67015;BME280;1033;52.560;13.374;2023-07-13T07:26:59;100828.09;;;23.62;49.94
67015;BME280;1033;52.560;13.374;2023-07-13T07:29:32;100835.03;;;24.12;49.08
67015;BME280;1033;52.560;13.374;2023-07-13T07:32:04;100832.47;;;23.92;48.98
67015;BME280;1033;52.560;13.374;2023-07-13T07:34:45;100825.94;;;23.82;48.53
67015;BME280;1033;52.560;13.374;2023-07-13T07:37:14;100827.28;;;23.22;48.64
67015;BME280;1033;52.560;13.374;2023-07-13T07:39:46;100830.00;;;23.27;49.00
67015;BME280;1033;52.560;13.374;2023-07-13T07:42:37;100827.06;;;23.81;48.02
67015;BME280;1033;52.560;13.374;2023-07-13T07:45:07;100833.44;;;24.35;47.25
67015;BME280;1033;52.560;13.374;2023-07-13T07:47:39;100833.59;;;24.43;46.10
67015;BME280;1033;52.560;13.374;2023-07-13T07:50:09;100839.22;;;24.57;45.58
67015;BME280;1033;52.560;13.374;2023-07-13T07:52:39;100843.19;;;24.69;45.05
67015;BME280;1033;52.560;13.374;2023-07-13T07:55:08;100841.84;;;23.96;45.80
67015;BME280;1033;52.560;13.374;2023-07-13T07:57:42;100841.97;;;23.86;45.36
67015;BME280;1033;52.560;13.374;2023-07-13T08:00:15;100839.63;;;23.69;46.00
67015;BME280;1033;52.560;13.374;2023-07-13T08:02:47;100839.72;;;23.59;45.49
67015;BME280;1033;52.560;13.374;2023-07-13T08:05:20;100851.31;;;23.90;45.33
67015;BME280;1033;52.560;13.374;2023-07-13T08:08:03;100845.50;;;23.62;45.87
67015;BME280;1033;52.560;13.374;2023-07-13T08:10:36;100845.00;;;23.55;46.35
67015;BME280;1033;52.560;13.374;2023-07-13T08:13:09;100848.69;;;23.74;46.93
67015;BME280;1033;52.560;13.374;2023-07-13T08:15:39;100837.25;;;23.86;47.28
67015;BME280;1033;52.560;13.374;2023-07-13T08:18:08;100851.69;;;24.31;46.63
67015;BME280;1033;52.560;13.374;2023-07-13T08:20:38;100845.03;;;24.55;46.14
67015;BME280;1033;52.560;13.374;2023-07-13T08:23:07;100837.78;;;24.83;45.23
67015;BME280;1033;52.560;13.374;2023-07-13T08:25:38;100848.84;;;24.59;44.85
67015;BME280;1033;52.560;13.374;2023-07-13T08:28:09;100849.47;;;24.33;45.70
67015;BME280;1033;52.560;13.374;2023-07-13T08:30:38;100853.81;;;24.62;45.54
67015;BME280;1033;52.560;13.374;2023-07-13T08:33:07;100851.00;;;24.86;45.17
67015;BME280;1033;52.560;13.374;2023-07-13T08:35:37;100854.28;;;25.44;44.16
67015;BME280;1033;52.560;13.374;2023-07-13T08:38:06;100849.53;;;25.96;43.68
67015;BME280;1033;52.560;13.374;2023-07-13T08:40:36;100861.16;;;25.98;43.05
67015;BME280;1033;52.560;13.374;2023-07-13T08:43:09;100861.16;;;25.98;42.94
67015;BME280;1033;52.560;13.374;2023-07-13T08:45:44;100859.22;;;25.47;42.90
67015;BME280;1033;52.560;13.374;2023-07-13T08:48:19;100862.97;;;25.57;42.06
67015;BME280;1033;52.560;13.374;2023-07-13T08:50:54;100859.94;;;25.02;42.45
67015;BME280;1033;52.560;13.374;2023-07-13T08:53:46;100863.47;;;24.41;42.82
67015;BME280;1033;52.560;13.374;2023-07-13T08:56:19;100866.28;;;24.60;43.04
67015;BME280;1033;52.560;13.374;2023-07-13T08:58:54;100864.03;;;24.43;43.42
67015;BME280;1033;52.560;13.374;2023-07-13T09:01:30;100863.34;;;24.51;43.04
67015;BME280;1033;52.560;13.374;2023-07-13T09:04:07;100866.91;;;24.76;41.85
67015;BME280;1033;52.560;13.374;2023-07-13T09:06:49;100872.28;;;24.91;42.13
67015;BME280;1033;52.560;13.374;2023-07-13T09:09:33;100866.53;;;25.06;41.40
67015;BME280;1033;52.560;13.374;2023-07-13T09:12:12;100860.59;;;24.94;41.60
67015;BME280;1033;52.560;13.374;2023-07-13T09:14:48;100874.41;;;24.51;41.55
67015;BME280;1033;52.560;13.374;2023-07-13T09:17:22;100862.00;;;24.73;41.24
67015;BME280;1033;52.560;13.374;2023-07-13T09:19:58;100861.06;;;25.01;41.65
67015;BME280;1033;52.560;13.374;2023-07-13T09:22:33;100862.53;;;25.49;40.41
67015;BME280;1033;52.560;13.374;2023-07-13T09:25:11;100864.38;;;25.54;40.35
67015;BME280;1033;52.560;13.374;2023-07-13T09:27:44;100863.41;;;25.64;39.47
67015;BME280;1033;52.560;13.374;2023-07-13T09:30:30;100860.88;;;25.81;39.91
67015;BME280;1033;52.560;13.374;2023-07-13T09:33:04;100864.00;;;25.42;39.24
67015;BME280;1033;52.560;13.374;2023-07-13T09:35:35;100855.63;;;25.66;39.87
67015;BME280;1033;52.560;13.374;2023-07-13T09:38:12;100861.25;;;25.93;39.58
67015;BME280;1033;52.560;13.374;2023-07-13T09:40:52;100856.34;;;26.17;38.77
67015;BME280;1033;52.560;13.374;2023-07-13T09:43:22;100860.22;;;25.89;38.41
67015;BME280;1033;52.560;13.374;2023-07-13T09:45:52;100864.69;;;25.52;40.14
67015;BME280;1033;52.560;13.374;2023-07-13T09:48:21;100861.91;;;25.52;39.76
67015;BME280;1033;52.560;13.374;2023-07-13T09:50:56;100869.03;;;26.23;39.74
67015;BME280;1033;52.560;13.374;2023-07-13T09:53:31;100858.84;;;26.46;38.71
67015;BME280;1033;52.560;13.374;2023-07-13T09:56:19;100857.81;;;26.56;38.10
67015;BME280;1033;52.560;13.374;2023-07-13T09:58:49;100858.22;;;27.12;37.70
67015;BME280;1033;52.560;13.374;2023-07-13T10:01:32;100868.09;;;27.54;36.72
67015;BME280;1033;52.560;13.374;2023-07-13T10:04:03;100870.75;;;27.46;36.72
67015;BME280;1033;52.560;13.374;2023-07-13T10:06:39;100864.03;;;27.02;36.82
67015;BME280;1033;52.560;13.374;2023-07-13T10:09:13;100857.69;;;27.24;36.57
67015;BME280;1033;52.560;13.374;2023-07-13T10:11:44;100860.44;;;27.60;36.66
67015;BME280;1033;52.560;13.374;2023-07-13T10:14:17;100862.84;;;27.17;36.81
67015;BME280;1033;52.560;13.374;2023-07-13T10:16:49;100869.28;;;27.04;37.44
67015;BME280;1033;52.560;13.374;2023-07-13T10:19:24;100857.28;;;27.53;36.30
67015;BME280;1033;52.560;13.374;2023-07-13T10:21:56;100847.91;;;26.91;35.43
67015;BME280;1033;52.560;13.374;2023-07-13T10:24:29;100862.19;;;26.16;36.75
67015;BME280;1033;52.560;13.374;2023-07-13T10:27:03;100869.66;;;25.88;37.29
67015;BME280;1033;52.560;13.374;2023-07-13T10:29:38;100864.06;;;25.74;36.08
67015;BME280;1033;52.560;13.374;2023-07-13T10:32:12;100864.28;;;25.78;36.80
67015;BME280;1033;52.560;13.374;2023-07-13T10:35:09;100866.09;;;25.69;36.46
67015;BME280;1033;52.560;13.374;2023-07-13T10:37:44;100858.69;;;26.10;36.04
67015;BME280;1033;52.560;13.374;2023-07-13T10:40:21;100858.75;;;26.51;35.93
67015;BME280;1033;52.560;13.374;2023-07-13T10:42:54;100860.81;;;27.09;35.99
67015;BME280;1033;52.560;13.374;2023-07-13T10:45:28;100864.53;;;27.04;35.65
67015;BME280;1033;52.560;13.374;2023-07-13T10:48:00;100852.66;;;26.90;36.15
67015;BME280;1033;52.560;13.374;2023-07-13T10:50:30;100861.91;;;26.72;36.14
67015;BME280;1033;52.560;13.374;2023-07-13T10:53:02;100861.81;;;26.22;37.55
67015;BME280;1033;52.560;13.374;2023-07-13T10:55:37;100871.47;;;25.79;37.73
67015;BME280;1033;52.560;13.374;2023-07-13T10:58:18;100856.84;;;26.06;38.13
67015;BME280;1033;52.560;13.374;2023-07-13T11:00:51;100851.72;;;26.54;37.70
67015;BME280;1033;52.560;13.374;2023-07-13T11:03:24;100856.56;;;26.34;37.04
67015;BME280;1033;52.560;13.374;2023-07-13T11:06:09;100852.16;;;26.61;37.45
67015;BME280;1033;52.560;13.374;2023-07-13T11:08:52;100847.69;;;26.87;36.29
67015;BME280;1033;52.560;13.374;2023-07-13T11:11:36;100856.69;;;27.06;35.62
67015;BME280;1033;52.560;13.374;2023-07-13T11:14:27;100849.00;;;27.03;36.04
67015;BME280;1033;52.560;13.374;2023-07-13T11:16:57;100864.91;;;27.25;35.24
67015;BME280;1033;52.560;13.374;2023-07-13T11:19:50;100856.09;;;27.09;35.26
67015;BME280;1033;52.560;13.374;2023-07-13T11:22:41;100853.81;;;27.11;35.29
67015;BME280;1033;52.560;13.374;2023-07-13T11:25:27;100854.03;;;27.15;34.87
67015;BME280;1033;52.560;13.374;2023-07-13T11:28:17;100848.34;;;27.42;35.26
67015;BME280;1033;52.560;13.374;2023-07-13T11:30:48;100857.91;;;27.50;34.73
67015;BME280;1033;52.560;13.374;2023-07-13T11:33:21;100852.78;;;27.65;33.66
67015;BME280;1033;52.560;13.374;2023-07-13T11:35:59;100848.88;;;27.08;32.05
67015;BME280;1033;52.560;13.374;2023-07-13T11:38:32;100857.22;;;27.08;32.40
67015;BME280;1033;52.560;13.374;2023-07-13T11:41:05;100850.91;;;27.16;33.03
67015;BME280;1033;52.560;13.374;2023-07-13T11:43:35;100853.88;;;27.56;32.41
67015;BME280;1033;52.560;13.374;2023-07-13T11:46:21;100861.13;;;27.43;33.07
67015;BME280;1033;52.560;13.374;2023-07-13T11:48:52;100858.34;;;27.43;33.15
67015;BME280;1033;52.560;13.374;2023-07-13T11:51:25;100855.16;;;27.14;32.71
67015;BME280;1033;52.560;13.374;2023-07-13T11:53:58;100849.16;;;26.71;33.65
67015;BME280;1033;52.560;13.374;2023-07-13T11:56:29;100849.78;;;26.41;34.41
67015;BME280;1033;52.560;13.374;2023-07-13T11:59:05;100849.69;;;26.46;35.56
67015;BME280;1033;52.560;13.374;2023-07-13T12:01:40;100857.56;;;26.79;34.52
67015;BME280;1033;52.560;13.374;2023-07-13T12:04:21;100856.34;;;27.21;33.67
67015;BME280;1033;52.560;13.374;2023-07-13T12:07:05;100853.59;;;27.44;32.75
67015;BME280;1033;52.560;13.374;2023-07-13T12:09:36;100856.31;;;26.99;32.51
67015;BME280;1033;52.560;13.374;2023-07-13T12:12:11;100861.88;;;26.99;33.34
67015;BME280;1033;52.560;13.374;2023-07-13T12:14:41;100853.84;;;27.34;32.33
67015;BME280;1033;52.560;13.374;2023-07-13T12:17:15;100857.34;;;27.61;32.43
67015;BME280;1033;52.560;13.374;2023-07-13T12:19:47;100845.75;;;26.74;33.94
67015;BME280;1033;52.560;13.374;2023-07-13T12:22:19;100846.72;;;26.28;34.40
67015;BME280;1033;52.560;13.374;2023-07-13T12:24:52;100861.25;;;26.07;35.28
67015;BME280;1033;52.560;13.374;2023-07-13T12:27:23;100856.81;;;26.38;35.42
67015;BME280;1033;52.560;13.374;2023-07-13T12:29:57;100857.88;;;26.78;35.05
67015;BME280;1033;52.560;13.374;2023-07-13T12:32:27;100848.22;;;26.89;33.49
67015;BME280;1033;52.560;13.374;2023-07-13T12:35:13;100848.78;;;27.13;33.73
67015;BME280;1033;52.560;13.374;2023-07-13T12:37:45;100854.16;;;27.32;32.92
67015;BME280;1033;52.560;13.374;2023-07-13T12:40:16;100846.28;;;26.90;33.13
67015;BME280;1033;52.560;13.374;2023-07-13T12:42:48;100850.59;;;27.18;32.68
67015;BME280;1033;52.560;13.374;2023-07-13T12:45:20;100843.75;;;27.15;33.01
67015;BME280;1033;52.560;13.374;2023-07-13T12:47:55;100840.44;;;27.13;32.23
67015;BME280;1033;52.560;13.374;2023-07-13T12:50:33;100844.63;;;27.24;32.68
67015;BME280;1033;52.560;13.374;2023-07-13T12:53:05;100837.66;;;26.64;33.44
67015;BME280;1033;52.560;13.374;2023-07-13T12:55:42;100844.97;;;26.32;33.73
67015;BME280;1033;52.560;13.374;2023-07-13T12:58:18;100845.91;;;26.42;33.94
67015;BME280;1033;52.560;13.374;2023-07-13T13:00:51;100845.34;;;26.12;35.02
67015;BME280;1033;52.560;13.374;2023-07-13T13:03:35;100840.84;;;26.57;34.18
67015;BME280;1033;52.560;13.374;2023-07-13T13:06:17;100845.22;;;26.99;32.93
67015;BME280;1033;52.560;13.374;2023-07-13T13:08:52;100839.78;;;27.30;32.56
67015;BME280;1033;52.560;13.374;2023-07-13T13:11:23;100842.75;;;27.78;32.42
67015;BME280;1033;52.560;13.374;2023-07-13T13:13:53;100842.47;;;27.88;31.24
67015;BME280;1033;52.560;13.374;2023-07-13T13:16:28;100838.84;;;27.57;31.35
67015;BME280;1033;52.560;13.374;2023-07-13T13:19:05;100840.97;;;27.60;32.11
67015;BME280;1033;52.560;13.374;2023-07-13T13:21:41;100847.34;;;27.02;32.72
67015;BME280;1033;52.560;13.374;2023-07-13T13:24:14;100838.19;;;27.15;33.25
67015;BME280;1033;52.560;13.374;2023-07-13T13:26:45;100840.97;;;27.60;32.41
67015;BME280;1033;52.560;13.374;2023-07-13T13:29:16;100836.81;;;28.02;32.56
67015;BME280;1033;52.560;13.374;2023-07-13T13:31:46;100843.81;;;28.22;32.44
67015;BME280;1033;52.560;13.374;2023-07-13T13:34:16;100847.59;;;28.03;32.09
67015;BME280;1033;52.560;13.374;2023-07-13T13:36:47;100842.47;;;27.88;32.39
67015;BME280;1033;52.560;13.374;2023-07-13T13:39:23;100834.19;;;27.75;32.74
67015;BME280;1033;52.560;13.374;2023-07-13T13:41:53;100839.38;;;27.23;33.61
67015;BME280;1033;52.560;13.374;2023-07-13T13:44:23;100840.78;;;26.98;33.63
67015;BME280;1033;52.560;13.374;2023-07-13T13:46:54;100839.13;;;27.33;34.18
67015;BME280;1033;52.560;13.374;2023-07-13T13:49:26;100843.63;;;27.20;33.59
67015;BME280;1033;52.560;13.374;2023-07-13T13:51:56;100844.81;;;26.78;33.94
67015;BME280;1033;52.560;13.374;2023-07-13T13:55:18;100842.03;;;27.06;33.28
67015;BME280;1033;52.560;13.374;2023-07-13T13:57:48;100853.25;;;26.87;34.12
67015;BME280;1033;52.560;13.374;2023-07-13T14:00:18;100851.00;;;26.75;34.34
67015;BME280;1033;52.560;13.374;2023-07-13T14:02:48;100843.56;;;26.85;34.32
67015;BME280;1033;52.560;13.374;2023-07-13T14:05:21;100840.03;;;26.57;34.75
67015;BME280;1033;52.560;13.374;2023-07-13T14:07:51;100837.72;;;27.00;34.16
67015;BME280;1033;52.560;13.374;2023-07-13T14:10:22;100844.63;;;27.47;33.26
67015;BME280;1033;52.560;13.374;2023-07-13T14:12:53;100838.84;;;26.99;33.64
67015;BME280;1033;52.560;13.374;2023-07-13T14:15:26;100844.63;;;27.24;33.73
67015;BME280;1033;52.560;13.374;2023-07-13T14:17:56;100847.88;;;27.04;34.06
67015;BME280;1033;52.560;13.374;2023-07-13T14:20:26;100864.59;;;26.77;34.17
67015;BME280;1033;52.560;13.374;2023-07-13T14:22:55;100857.50;;;26.57;34.67
67015;BME280;1033;52.560;13.374;2023-07-13T14:25:27;100864.78;;;26.67;34.58